Triathlon de l Iton 2022

Epreuve sélectionnée:


Triathlon M - Résultats Scratch

Filtre:

Partants Général Top 5



Recherche:

N° dossard
Nom
Club
Triathlon M - Classement arrivée
Clt Athlète Nat. Club Temps Sexe Cat CaP Nat #1 Vélo #2
1 1223 PIERRE Lilian EVREUX AC. TRIATHLON 02:00:28 M (1e) Senior (1e) 00:36:07 (3e) 00:17:20 (1e) 00:01:08 (15e) 01:05:06 (1e) 00:00:49 (2e) Partagez votre performance
2 1066 RIVRON MAXIME US PALAISEAU TRIATHLON 02:00:58 M (2e) Senior (2e) 00:33:33 (1e) 00:19:10 (11e) 00:01:21 (32e) 01:05:54 (3e) 00:01:02 (28e) Partagez votre performance
3 1133 BUFFE Julien ISSY TRIATHLON 02:03:37 M (3e) Senior (3e) 00:36:30 (5e) 00:17:21 (2e) 00:00:56 (3e) 01:07:58 (8e) 00:00:55 (7e) Partagez votre performance
4 1217 BOURLET Mathieu BEAUVAIS TRIATHLON 02:06:46 M (4e) Senior (4e) 00:38:03 (10e) 00:18:55 (8e) 00:01:02 (7e) 01:07:48 (6e) 00:01:00 (23e) Partagez votre performance
5 1149 QUETTIER Alexandre DASSAULT SPORTS 02:06:53 M (5e) Senior (5e) 00:35:59 (2e) 00:20:31 (25e) 00:01:21 (33e) 01:08:09 (9e) 00:00:54 (6e) Partagez votre performance
6 1295 SINAEVE Mickael TEAM TRI CAUX AUSTREBERTHE 02:07:10 M (6e) Senior (6e) 00:36:31 (6e) 00:19:15 (12e) 00:01:07 (12e) 01:09:20 (11e) 00:01:00 (21e) Partagez votre performance
7 1280 COUBRAY Erwan CAEN TRIATHLON 02:07:52 M (7e) Senior (7e) 00:38:41 (14e) 00:18:14 (4e) 00:00:55 (2e) 01:09:21 (12e) 00:00:42 (1e) Partagez votre performance
8 1252 PICHOU Olivier ROUEN TRIATHLON 02:08:33 M (8e) Master (1e) 00:37:21 (7e) 00:20:33 (26e) 00:01:14 (24e) 01:08:21 (10e) 00:01:06 (44e) Partagez votre performance
9 1243 BOUVET Antoine VAL DE REUIL TRIATHLON 02:10:19 M (9e) Senior (8e) 00:39:01 (15e) 00:17:28 (3e) 00:01:02 (6e) 01:11:46 (28e) 00:01:03 (31e) Partagez votre performance
10 1164 LIEGEOIS Nathan EPPG TRIATHLON CLUB 93 02:10:25 M (10e) Senior (9e) 00:37:34 (8e) 00:20:19 (19e) 00:01:01 (5e) 01:10:34 (20e) 00:00:58 (13e) Partagez votre performance
11 1212 BROISSART Etienne BEAUVAIS TRIATHLON 02:10:35 M (11e) Senior (10e) 00:36:11 (4e) 00:19:03 (9e) 00:01:08 (14e) 01:13:15 (52e) 00:01:00 (24e) Partagez votre performance
12 1058 HOEDT JULIEN S.O. HOUILLES TRIATHLON 02:12:11 M (12e) Master (2e) 00:40:10 (18e) 00:20:05 (17e) 00:01:03 (9e) 01:09:59 (14e) 00:00:55 (9e) Partagez votre performance
13 1134 BOUVY Quentin ISSY TRIATHLON 02:12:57 M (13e) Senior (11e) 00:37:45 (9e) 00:20:28 (22e) 00:01:13 (23e) 01:12:37 (42e) 00:00:56 (11e) Partagez votre performance
14 1275 PITARD Mathieu YVETOT TRIATHLON 02:13:36 M (14e) Senior (12e) 00:40:23 (21e) 00:22:55 (62e) 00:01:15 (27e) 01:07:55 (7e) 00:01:09 (64e) Partagez votre performance
15 1215 DEWANCKELE MATTHIEU BEAUVAIS TRIATHLON 02:13:51 M (15e) Master (3e) 00:41:04 (28e) 00:18:18 (5e) 00:01:10 (17e) 01:12:31 (40e) 00:00:50 (3e) Partagez votre performance
16 1175 AGUERRE Mathieu OGN TRIATHLON 02:13:52 M (16e) Master (4e) 00:38:21 (11e) 00:20:28 (23e) 00:01:33 (67e) 01:12:14 (36e) 00:01:17 (91e) Partagez votre performance
17 1150 BOQUET David DASSAULT SPORTS 02:14:06 M (17e) Master (5e) 00:38:37 (13e) 00:22:02 (44e) 00:01:57 (132e) 01:10:22 (19e) 00:01:10 (66e) Partagez votre performance
18 1053 PRIGENT Anthony S.O. HOUILLES TRIATHLON 02:14:23 M (18e) Senior (13e) 00:38:36 (12e) 00:23:12 (67e) 00:01:11 (18e) 01:10:18 (18e) 00:01:08 (57e) Partagez votre performance
19 1154 GUEGAN Maxime TRIATHLON CLUB ST QUENTIN EN YVEL. 02:14:30 M (19e) Senior (14e) 00:40:18 (20e) 00:21:45 (41e) 00:01:17 (29e) 01:10:07 (16e) 00:01:05 (38e) Partagez votre performance
20 1136 BUSNEL Lubin ISSY TRIATHLON 02:15:00 M (20e) Senior (15e) 00:40:33 (24e) 00:19:25 (13e) 00:01:31 (60e) 01:12:35 (41e) 00:00:59 (16e) Partagez votre performance
21 1151 BOUS Guillaume ATHLETIC CLUB BOULOGNE BILLANCOURT 02:15:04 M (21e) Master (6e) 00:40:50 (26e) 00:19:59 (15e) 00:01:24 (41e) 01:11:40 (27e) 00:01:12 (79e) Partagez votre performance
22 1163 ROUSSEAU Quentin EPPG TRIATHLON CLUB 93 02:15:21 M (22e) Senior (16e) 00:40:26 (23e) 00:21:22 (37e) 00:01:07 (13e) 01:11:29 (25e) 00:00:58 (14e) Partagez votre performance
23 1274 BARREAU Guillaume MSA TRIATHLON 02:15:37 M (23e) Master (7e) 00:42:01 (34e) 00:20:48 (28e) 00:01:03 (8e) 01:10:41 (21e) 00:01:06 (43e) Partagez votre performance
24 1297 PENA Nicolas TEAM TRI CAUX AUSTREBERTHE 02:16:53 M (24e) Master (8e) 00:43:12 (48e) 00:25:56 (150e) 00:01:38 (80e) 01:05:09 (2e) 00:01:00 (20e) Partagez votre performance
25 1287 HUILLE Maxime TEAM VAL EURE TRIATHLON 02:16:55 M (25e) Senior (17e) 00:40:24 (22e) 00:24:20 (113e) 00:01:24 (40e) 01:09:59 (15e) 00:00:51 (4e) Partagez votre performance
26 1211 BLERIOT Mathieu BEAUVAIS TRIATHLON 02:16:55 M (26e) Senior (18e) 00:41:21 (29e) 00:22:05 (45e) 00:01:23 (39e) 01:11:01 (23e) 00:01:07 (51e) Partagez votre performance
27 1240 CLYNCKEMAILLIE David VAL DE REUIL TRIATHLON 02:17:49 M (27e) Senior (19e) 00:43:16 (50e) 00:20:33 (27e) 00:01:06 (11e) 01:11:48 (29e) 00:01:09 (61e) Partagez votre performance
28 1268 FREDERIC MAHIEU LES LIONS TRIATHLON 02:18:16 M (28e) Master (9e) 00:40:15 (19e) 00:22:18 (47e) 00:02:35 (215e) 01:12:05 (32e) 00:01:04 (32e) Partagez votre performance
29 1032 DUPEU Franck TRINOSAURE 02:18:21 M (29e) Master (10e) 00:44:17 (56e) 00:23:45 (83e) 00:01:21 (35e) 01:07:38 (4e) 00:01:22 (110e) Partagez votre performance
30 1322 BELLANGER Bruno 02:18:27 M (30e) Master (11e) 00:40:49 (25e) 00:23:45 (82e) 00:02:31 (209e) 01:10:13 (17e) 00:01:11 (69e) Partagez votre performance
31 1153 NANTAS Fabien VALLEE DE MONTMORENCY TRIATHLON 02:18:36 M (31e) Master (12e) 00:41:47 (32e) 00:24:18 (111e) 00:01:53 (122e) 01:09:32 (13e) 00:01:08 (56e) Partagez votre performance
32 1037 MACADRE Stéphane TRINOSAURE 02:18:46 M (32e) Master (13e) 00:43:55 (54e) 00:20:07 (18e) 00:01:31 (61e) 01:11:39 (26e) 00:01:36 (176e) Partagez votre performance
33 1167 JANOT Etienne TRIATHLON SANNOIS FRANCONVILLE 02:18:56 M (33e) Senior (20e) 00:40:08 (17e) 00:22:46 (55e) 00:01:46 (97e) 01:13:21 (53e) 00:00:57 (12e) Partagez votre performance
34 1208 VOTTE Antoine BEAUVAIS TRIATHLON 02:18:58 M (34e) Senior (21e) 00:50:08 (111e) 00:19:06 (10e) 00:01:00 (4e) 01:07:41 (5e) 00:01:04 (34e) Partagez votre performance
35 1161 RAYBAUT Daniel A.S.M BOUYGUES 02:19:10 M (35e) Master (14e) 00:42:34 (42e) 00:20:59 (30e) 00:01:26 (48e) 01:12:54 (46e) 00:01:19 (95e) Partagez votre performance
36 1291 GOHIN Valentin LES RAINETTES DU PAYS D AUGE 02:19:19 M (36e) Senior (22e) 00:42:03 (35e) 00:20:27 (21e) 00:01:27 (51e) 01:14:13 (58e) 00:01:11 (72e) Partagez votre performance
37 1089 LEMAIRE Thomas TRIATH`CLUB D`ANDRESY 02:19:20 M (37e) Senior (23e) 00:44:30 (58e) 00:20:00 (16e) 00:01:43 (90e) 01:12:09 (33e) 00:00:59 (18e) Partagez votre performance
38 1083 PERDERISET Julien TRIATH`CLUB D`ANDRESY 02:19:41 M (38e) Master (15e) 00:43:15 (49e) 00:21:59 (43e) 00:01:09 (16e) 01:12:04 (31e) 00:01:16 (86e) Partagez votre performance
39 1162 CONAN Geoffrey EPPG TRIATHLON CLUB 93 02:20:46 M (39e) Senior (24e) 00:41:52 (33e) 00:24:07 (98e) 00:01:27 (49e) 01:12:22 (38e) 00:01:01 (26e) Partagez votre performance
40 1021 PASQUIER Ewen TRINOSAURE 02:20:48 M (40e) Senior (25e) 00:41:40 (31e) 00:21:28 (38e) 00:01:46 (98e) 01:14:37 (62e) 00:01:19 (98e) Partagez votre performance
41 1091 BUBBE Julien ENTENTE SPORTIVE NANTERRE 02:20:50 M (41e) Master (16e) 00:42:15 (39e) 00:21:57 (42e) 00:01:34 (68e) 01:13:32 (55e) 00:01:34 (165e) Partagez votre performance
42 1054 ZEPPARELLI Thierry S.O. HOUILLES TRIATHLON 02:20:52 M (42e) Master (17e) 00:42:05 (36e) 00:24:15 (107e) 00:01:38 (78e) 01:11:48 (30e) 00:01:07 (48e) Partagez votre performance
43 1197 PEIRONE Guillaume USML TRIATHLON 02:20:54 M (43e) Master (18e) 00:39:46 (16e) 00:24:11 (104e) 00:02:39 (222e) 01:12:38 (43e) 00:01:42 (194e) Partagez votre performance
44 1260 LEPAGE GUILLAUME H.A.C TRIATHLON 02:21:05 M (44e) Senior (26e) 00:42:10 (37e) 00:22:53 (61e) 00:02:06 (151e) 01:12:53 (45e) 00:01:06 (41e) Partagez votre performance
45 1276 LOUE CEDRICK YVETOT TRIATHLON 02:21:37 M (45e) Master (19e) 00:42:35 (43e) 00:24:53 (121e) 00:02:06 (149e) 01:10:48 (22e) 00:01:17 (89e) Partagez votre performance
46 1242 CIRETTE Wilfried VAL DE REUIL TRIATHLON 02:21:37 M (46e) Master (20e) 00:44:41 (61e) 00:21:13 (35e) 00:01:23 (38e) 01:13:02 (47e) 00:01:20 (100e) Partagez votre performance
47 1036 DELOGE Guillaume TRINOSAURE 02:22:04 M (47e) Senior (27e) 00:45:08 (66e) 00:21:30 (39e) 00:01:28 (52e) 01:12:11 (35e) 00:01:50 (214e) Partagez votre performance
48 1315 EUDELINE Florian 02:22:30 M (48e) Senior (28e) 00:42:10 (38e) 00:25:29 (133e) 00:02:06 (152e) 01:11:13 (24e) 00:01:34 (162e) Partagez votre performance
49 1157 COLAT DAVID TRIATHLON CLUB ST QUENTIN EN YVEL. 02:22:33 M (49e) Senior (29e) 00:44:33 (59e) 00:23:00 (64e) 00:01:18 (30e) 01:12:10 (34e) 00:01:34 (164e) Partagez votre performance
50 1048 KHALED Marouene S.O. HOUILLES TRIATHLON 02:22:35 M (50e) Master (21e)